sensor_id;sensor_type;location;lat;lon;timestamp;pressure;altitude;pressure_sealevel;temperature;humidity
42067;BME280;27734;47.028;28.820;2023-04-19T00:01:30;100123.63;;;9.77;97.88
42067;BME280;27734;47.028;28.820;2023-04-19T00:04:02;100130.53;;;9.75;97.27
42067;BME280;27734;47.028;28.820;2023-04-19T00:06:33;100135.72;;;9.74;98.27
42067;BME280;27734;47.028;28.820;2023-04-19T00:09:05;100132.12;;;9.70;97.88
42067;BME280;27734;47.028;28.820;2023-04-19T00:11:36;100132.02;;;9.67;98.11
42067;BME280;27734;47.028;28.820;2023-04-19T00:14:08;100132.79;;;9.64;98.13
42067;BME280;27734;47.028;28.820;2023-04-19T00:16:39;100131.86;;;9.62;98.63
42067;BME280;27734;47.028;28.820;2023-04-19T00:19:11;100126.47;;;9.58;98.87
42067;BME280;27734;47.028;28.820;2023-04-19T00:21:42;100132.48;;;9.55;98.84
42067;BME280;27734;47.028;28.820;2023-04-19T00:24:13;100131.55;;;9.53;98.37
42067;BME280;27734;47.028;28.820;2023-04-19T00:26:44;100132.42;;;9.53;98.87
42067;BME280;27734;47.028;28.820;2023-04-19T00:29:23;100128.87;;;9.51;98.00
42067;BME280;27734;47.028;28.820;2023-04-19T00:31:58;100128.83;;;9.50;98.25
42067;BME280;27734;47.028;28.820;2023-04-19T00:34:29;100128.87;;;9.51;98.63
42067;BME280;27734;47.028;28.820;2023-04-19T00:37:00;100124.52;;;9.52;98.61
42067;BME280;27734;47.028;28.820;2023-04-19T00:39:33;100125.48;;;9.54;98.84
42067;BME280;27734;47.028;28.820;2023-04-19T00:42:07;100117.63;;;9.54;98.35
42067;BME280;27734;47.028;28.820;2023-04-19T00:44:38;100112.44;;;9.56;97.98
42067;BME280;27734;47.028;28.820;2023-04-19T00:47:09;100112.44;;;9.56;99.01
42067;BME280;27734;47.028;28.820;2023-04-19T00:49:41;100119.44;;;9.57;98.63
42067;BME280;27734;47.028;28.820;2023-04-19T00:52:13;100115.98;;;9.58;99.07
42067;BME280;27734;47.028;28.820;2023-04-19T00:54:45;100113.31;;;9.56;98.14
42067;BME280;27734;47.028;28.820;2023-04-19T00:57:17;100104.63;;;9.57;98.65
42067;BME280;27734;47.028;28.820;2023-04-19T00:59:48;100107.25;;;9.57;99.21
42067;BME280;27734;47.028;28.820;2023-04-19T01:02:20;100104.58;;;9.56;99.39
42067;BME280;27734;47.028;28.820;2023-04-19T01:04:53;100096.62;;;9.52;100.00
42067;BME280;27734;47.028;28.820;2023-04-19T01:07:24;100098.27;;;9.50;100.00
42067;BME280;27734;47.028;28.820;2023-04-19T01:09:55;100095.59;;;9.47;99.55
42067;BME280;27734;47.028;28.820;2023-04-19T01:12:27;100087.67;;;9.46;99.65
42067;BME280;27734;47.028;28.820;2023-04-19T01:14:58;100085.94;;;9.46;99.98
42067;BME280;27734;47.028;28.820;2023-04-19T01:17:31;100084.95;;;9.43;99.35
42067;BME280;27734;47.028;28.820;2023-04-19T01:20:04;100091.95;;;9.44;99.14
42067;BME280;27734;47.028;28.820;2023-04-19T01:22:36;100091.95;;;9.44;99.27
42067;BME280;27734;47.028;28.820;2023-04-19T01:25:09;100092.76;;;9.41;99.06
42067;BME280;27734;47.028;28.820;2023-04-19T01:27:41;100085.78;;;9.42;99.37
42067;BME280;27734;47.028;28.820;2023-04-19T01:30:13;100084.85;;;9.40;100.00
42067;BME280;27734;47.028;28.820;2023-04-19T01:32:45;100087.42;;;9.38;100.00
42067;BME280;27734;47.028;28.820;2023-04-19T01:35:16;100076.79;;;9.33;100.00
42067;BME280;27734;47.028;28.820;2023-04-19T01:37:47;100070.53;;;9.30;100.00
42067;BME280;27734;47.028;28.820;2023-04-19T01:40:22;100077.51;;;9.29;100.00
42067;BME280;27734;47.028;28.820;2023-04-19T01:42:54;100080.84;;;9.25;99.97
42067;BME280;27734;47.028;28.820;2023-04-19T01:45:25;100080.02;;;9.26;100.00
42067;BME280;27734;47.028;28.820;2023-04-19T01:47:56;100076.53;;;9.26;100.00
42067;BME280;27734;47.028;28.820;2023-04-19T01:50:28;100079.14;;;9.26;100.00
42067;BME280;27734;47.028;28.820;2023-04-19T01:53:00;100076.47;;;9.24;100.00
42067;BME280;27734;47.028;28.820;2023-04-19T01:55:31;100076.47;;;9.24;99.41
42067;BME280;27734;47.028;28.820;2023-04-19T01:58:02;100076.47;;;9.24;99.32
42067;BME280;27734;47.028;28.820;2023-04-19T02:00:33;100081.70;;;9.24;99.53
42067;BME280;27734;47.028;28.820;2023-04-19T02:03:07;100078.18;;;9.24;100.00
42067;BME280;27734;47.028;28.820;2023-04-19T02:05:40;100071.19;;;9.23;100.00
42067;BME280;27734;47.028;28.820;2023-04-19T02:08:11;100080.74;;;9.22;100.00
42067;BME280;27734;47.028;28.820;2023-04-19T02:10:42;100079.86;;;9.22;100.00
42067;BME280;27734;47.028;28.820;2023-04-19T02:13:13;100078.13;;;9.22;99.75
42067;BME280;27734;47.028;28.820;2023-04-19T02:15:45;100072.89;;;9.22;99.96
42067;BME280;27734;47.028;28.820;2023-04-19T02:18:16;100069.34;;;9.20;99.73
42067;BME280;27734;47.028;28.820;2023-04-19T02:20:47;100065.79;;;9.18;100.00
42067;BME280;27734;47.028;28.820;2023-04-19T02:23:19;100070.06;;;9.16;100.00
42067;BME280;27734;47.028;28.820;2023-04-19T02:25:50;100063.84;;;9.12;100.00
42067;BME280;27734;47.028;28.820;2023-04-19T02:28:22;100065.52;;;9.10;100.00
42067;BME280;27734;47.028;28.820;2023-04-19T02:30:53;100066.30;;;9.08;100.00
42067;BME280;27734;47.028;28.820;2023-04-19T02:33:25;100062.75;;;9.06;100.00
42067;BME280;27734;47.028;28.820;2023-04-19T02:35:57;100059.11;;;9.02;100.00
42067;BME280;27734;47.028;28.820;2023-04-19T02:38:29;100062.64;;;9.03;100.00
42067;BME280;27734;47.028;28.820;2023-04-19T02:41:01;100060.08;;;9.04;100.00
42067;BME280;27734;47.028;28.820;2023-04-19T02:43:33;100061.78;;;9.04;100.00
42067;BME280;27734;47.028;28.820;2023-04-19T02:46:04;100050.37;;;9.02;100.00
42067;BME280;27734;47.028;28.820;2023-04-19T02:48:35;100048.48;;;8.97;100.00
42067;BME280;27734;47.028;28.820;2023-04-19T02:51:07;100052.02;;;8.98;100.00
42067;BME280;27734;47.028;28.820;2023-04-19T02:53:38;100044.93;;;8.95;100.00
42067;BME280;27734;47.028;28.820;2023-04-19T02:56:10;100044.11;;;8.96;100.00
42067;BME280;27734;47.028;28.820;2023-04-19T02:58:42;100046.62;;;8.93;100.00
42067;BME280;27734;47.028;28.820;2023-04-19T03:01:13;100043.06;;;8.91;100.00
42067;BME280;27734;47.028;28.820;2023-04-19T03:03:44;100044.82;;;8.92;100.00
42067;BME280;27734;47.028;28.820;2023-04-19T03:06:15;100042.16;;;8.91;100.00
42067;BME280;27734;47.028;28.820;2023-04-19T03:08:47;100043.84;;;8.89;100.00
42067;BME280;27734;47.028;28.820;2023-04-19T03:11:19;100045.58;;;8.88;100.00
42067;BME280;27734;47.028;28.820;2023-04-19T03:13:51;100035.11;;;8.88;100.00
42067;BME280;27734;47.028;28.820;2023-04-19T03:16:22;100041.27;;;8.90;100.00
42067;BME280;27734;47.028;28.820;2023-04-19T03:18:55;100035.11;;;8.88;100.00
42067;BME280;27734;47.028;28.820;2023-04-19T03:21:27;100029.82;;;8.87;100.00
42067;BME280;27734;47.028;28.820;2023-04-19T03:23:59;100028.91;;;8.86;100.00
42067;BME280;27734;47.028;28.820;2023-04-19T03:26:31;100017.56;;;8.86;100.00
42067;BME280;27734;47.028;28.820;2023-04-19T03:29:04;100022.74;;;8.84;100.00
42067;BME280;27734;47.028;28.820;2023-04-19T03:31:57;100017.45;;;8.83;100.00
42067;BME280;27734;47.028;28.820;2023-04-19T03:34:29;100024.48;;;8.84;100.00
42067;BME280;27734;47.028;28.820;2023-04-19T03:37:00;100020.13;;;8.84;100.00
42067;BME280;27734;47.028;28.820;2023-04-19T03:39:33;100017.56;;;8.86;100.00
42067;BME280;27734;47.028;28.820;2023-04-19T03:42:06;100018.45;;;8.86;100.00
42067;BME280;27734;47.028;28.820;2023-04-19T03:44:57;100012.28;;;8.84;100.00
42067;BME280;27734;47.028;28.820;2023-04-19T03:47:29;100007.92;;;8.85;100.00
42067;BME280;27734;47.028;28.820;2023-04-19T03:50:01;100018.34;;;8.83;100.00
42067;BME280;27734;47.028;28.820;2023-04-19T03:52:33;100009.55;;;8.81;100.00
42067;BME280;27734;47.028;28.820;2023-04-19T03:55:06;100016.58;;;8.82;100.00
42067;BME280;27734;47.028;28.820;2023-04-19T03:57:40;100018.34;;;8.83;100.00
42067;BME280;27734;47.028;28.820;2023-04-19T04:00:18;100013.21;;;8.86;100.00
42067;BME280;27734;47.028;28.820;2023-04-19T04:02:52;100018.45;;;8.86;100.00
42067;BME280;27734;47.028;28.820;2023-04-19T04:05:24;100008.03;;;8.88;100.00
42067;BME280;27734;47.028;28.820;2023-04-19T04:07:57;100010.70;;;8.89;100.00
42067;BME280;27734;47.028;28.820;2023-04-19T04:10:28;100002.84;;;8.89;100.00
42067;BME280;27734;47.028;28.820;2023-04-19T04:13:00;100006.27;;;8.87;100.00
42067;BME280;27734;47.028;28.820;2023-04-19T04:15:40;100003.70;;;8.88;100.00
42067;BME280;27734;47.028;28.820;2023-04-19T04:18:13;99999.30;;;8.87;100.00
42067;BME280;27734;47.028;28.820;2023-04-19T04:20:45;100001.09;;;8.88;100.00
42067;BME280;27734;47.028;28.820;2023-04-19T04:23:16;99992.38;;;8.89;100.00
42067;BME280;27734;47.028;28.820;2023-04-19T04:25:58;99984.64;;;8.92;100.00
42067;BME280;27734;47.028;28.820;2023-04-19T04:28:36;99990.91;;;8.97;100.00
42067;BME280;27734;47.028;28.820;2023-04-19T04:31:08;99996.25;;;9.00;100.00
42067;BME280;27734;47.028;28.820;2023-04-19T04:33:41;99995.47;;;9.03;100.00
42067;BME280;27734;47.028;28.820;2023-04-19T04:36:16;99993.02;;;9.08;100.00
42067;BME280;27734;47.028;28.820;2023-04-19T04:38:48;99985.21;;;9.09;100.00
42067;BME280;27734;47.028;28.820;2023-04-19T04:41:19;99981.77;;;9.10;100.00
42067;BME280;27734;47.028;28.820;2023-04-19T04:43:51;99989.67;;;9.12;100.00
42067;BME280;27734;47.028;28.820;2023-04-19T04:46:24;99987.93;;;9.12;100.00
42067;BME280;27734;47.028;28.820;2023-04-19T04:48:56;99988.09;;;9.17;100.00
42067;BME280;27734;47.028;28.820;2023-04-19T04:51:28;99988.29;;;9.23;100.00
42067;BME280;27734;47.028;28.820;2023-04-19T04:54:00;99989.27;;;9.27;100.00
42067;BME280;27734;47.028;28.820;2023-04-19T04:56:32;99988.64;;;9.34;100.00
42067;BME280;27734;47.028;28.820;2023-04-19T04:59:04;99993.15;;;9.38;100.00
42067;BME280;27734;47.028;28.820;2023-04-19T05:01:40;99991.56;;;9.43;100.00
42067;BME280;27734;47.028;28.820;2023-04-19T05:04:11;99987.25;;;9.45;100.00
42067;BME280;27734;47.028;28.820;2023-04-19T05:06:42;99986.42;;;9.46;100.00
42067;BME280;27734;47.028;28.820;2023-04-19T05:09:14;99991.75;;;9.49;100.00
42067;BME280;27734;47.028;28.820;2023-04-19T05:11:46;99987.49;;;9.53;100.00
42067;BME280;27734;47.028;28.820;2023-04-19T05:14:17;99987.49;;;9.53;100.00
42067;BME280;27734;47.028;28.820;2023-04-19T05:16:48;99983.23;;;9.57;100.00
42067;BME280;27734;47.028;28.820;2023-04-19T05:19:20;99983.42;;;9.63;100.00
42067;BME280;27734;47.028;28.820;2023-04-19T05:21:59;99985.31;;;9.67;100.00
42067;BME280;27734;47.028;28.820;2023-04-19T05:24:31;99987.14;;;9.69;100.00
42067;BME280;27734;47.028;28.820;2023-04-19T05:27:03;99980.21;;;9.71;100.00
42067;BME280;27734;47.028;28.820;2023-04-19T05:29:34;99981.09;;;9.72;100.00
42067;BME280;27734;47.028;28.820;2023-04-19T05:32:07;99986.33;;;9.72;100.00
42067;BME280;27734;47.028;28.820;2023-04-19T05:34:46;99989.86;;;9.73;100.00
42067;BME280;27734;47.028;28.820;2023-04-19T05:37:18;99988.85;;;9.69;100.00
42067;BME280;27734;47.028;28.820;2023-04-19T05:39:50;99989.77;;;9.69;100.00
42067;BME280;27734;47.028;28.820;2023-04-19T05:42:21;99988.02;;;9.70;100.00
42067;BME280;27734;47.028;28.820;2023-04-19T05:44:55;99988.07;;;9.71;100.00
42067;BME280;27734;47.028;28.820;2023-04-19T05:47:27;99981.14;;;9.74;100.00
42067;BME280;27734;47.028;28.820;2023-04-19T05:50:17;99980.40;;;9.78;100.00
42067;BME280;27734;47.028;28.820;2023-04-19T05:53:02;99978.70;;;9.80;100.00
42067;BME280;27734;47.028;28.820;2023-04-19T05:55:37;99977.14;;;9.85;100.00
42067;BME280;27734;47.028;28.820;2023-04-19T05:58:09;99981.70;;;9.92;100.00
42067;BME280;27734;47.028;28.820;2023-04-19T06:00:41;99988.03;;;9.99;100.00
42067;BME280;27734;47.028;28.820;2023-04-19T06:03:13;99983.94;;;10.08;100.00
42067;BME280;27734;47.028;28.820;2023-04-19T06:05:45;99976.30;;;10.16;100.00
42067;BME280;27734;47.028;28.820;2023-04-19T06:08:30;99973.03;;;10.25;100.00
42067;BME280;27734;47.028;28.820;2023-04-19T06:11:04;99975.79;;;10.30;100.00
42067;BME280;27734;47.028;28.820;2023-04-19T06:13:37;99977.83;;;10.38;100.00
42067;BME280;27734;47.028;28.820;2023-04-19T06:16:39;99972.84;;;10.48;100.00
42067;BME280;27734;47.028;28.820;2023-04-19T06:19:16;99976.47;;;10.53;100.00
42067;BME280;27734;47.028;28.820;2023-04-19T06:21:57;99980.18;;;10.61;100.00
42067;BME280;27734;47.028;28.820;2023-04-19T06:24:40;99978.52;;;10.63;100.00
42067;BME280;27734;47.028;28.820;2023-04-19T06:27:15;99985.59;;;10.67;100.00
42067;BME280;27734;47.028;28.820;2023-04-19T06:29:50;99975.18;;;10.70;100.00
42067;BME280;27734;47.028;28.820;2023-04-19T06:32:27;99972.64;;;10.73;100.00
42067;BME280;27734;47.028;28.820;2023-04-19T06:35:08;99967.39;;;10.73;100.00
42067;BME280;27734;47.028;28.820;2023-04-19T06:37:44;99983.50;;;10.87;100.00
42067;BME280;27734;47.028;28.820;2023-04-19T06:40:30;99974.88;;;10.91;100.00
42067;BME280;27734;47.028;28.820;2023-04-19T06:43:10;99986.33;;;10.95;100.00
42067;BME280;27734;47.028;28.820;2023-04-19T06:45:44;99980.32;;;10.99;100.00
42067;BME280;27734;47.028;28.820;2023-04-19T06:48:20;99980.67;;;11.13;100.00
42067;BME280;27734;47.028;28.820;2023-04-19T06:50:52;99990.50;;;11.22;100.00
42067;BME280;27734;47.028;28.820;2023-04-19T06:53:23;99980.98;;;11.25;100.00
42067;BME280;27734;47.028;28.820;2023-04-19T06:56:01;99983.88;;;11.36;100.00
42067;BME280;27734;47.028;28.820;2023-04-19T06:58:37;99984.02;;;11.42;100.00
42067;BME280;27734;47.028;28.820;2023-04-19T07:01:11;99979.02;;;11.53;100.00
42067;BME280;27734;47.028;28.820;2023-04-19T07:03:47;99976.54;;;11.61;100.00
42067;BME280;27734;47.028;28.820;2023-04-19T07:06:19;99975.70;;;11.62;100.00
42067;BME280;27734;47.028;28.820;2023-04-19T07:08:51;99972.23;;;11.63;100.00
42067;BME280;27734;47.028;28.820;2023-04-19T07:11:27;99979.20;;;11.62;100.00
42067;BME280;27734;47.028;28.820;2023-04-19T07:14:19;99987.13;;;11.64;100.00
42067;BME280;27734;47.028;28.820;2023-04-19T07:16:54;99983.77;;;11.69;100.00
42067;BME280;27734;47.028;28.820;2023-04-19T07:19:24;99990.11;;;11.79;100.00
42067;BME280;27734;47.028;28.820;2023-04-19T07:21:58;99991.89;;;11.80;100.00
42067;BME280;27734;47.028;28.820;2023-04-19T07:24:33;99986.73;;;11.85;100.00
42067;BME280;27734;47.028;28.820;2023-04-19T07:27:06;99996.52;;;11.91;100.00
42067;BME280;27734;47.028;28.820;2023-04-19T07:29:44;99996.72;;;11.98;100.00
42067;BME280;27734;47.028;28.820;2023-04-19T07:32:18;99982.56;;;11.93;100.00
42067;BME280;27734;47.028;28.820;2023-04-19T07:34:50;99999.58;;;12.09;100.00
42067;BME280;27734;47.028;28.820;2023-04-19T07:37:21;99991.83;;;12.17;100.00
42067;BME280;27734;47.028;28.820;2023-04-19T10:44:26;99917.97;;;15.17;90.13
42067;BME280;27734;47.028;28.820;2023-04-19T10:47:09;99924.16;;;15.20;89.73
42067;BME280;27734;47.028;28.820;2023-04-19T10:49:51;99921.52;;;15.22;89.62
42067;BME280;27734;47.028;28.820;2023-04-19T10:52:30;99924.20;;;15.26;88.96
42067;BME280;27734;47.028;28.820;2023-04-19T10:55:06;99918.05;;;15.27;88.20
42067;BME280;27734;47.028;28.820;2023-04-19T10:58:04;99912.73;;;15.23;87.55
42067;BME280;27734;47.028;28.820;2023-04-19T11:00:38;99913.66;;;15.31;87.83
42067;BME280;27734;47.028;28.820;2023-04-19T11:06:23;99902.33;;;15.48;88.79
42067;BME280;27734;47.028;28.820;2023-04-19T11:08:57;99899.75;;;15.58;88.60
42067;BME280;27734;47.028;28.820;2023-04-19T11:11:36;99910.38;;;15.68;86.57
42067;BME280;27734;47.028;28.820;2023-04-19T11:14:16;99898.99;;;15.79;86.00
42067;BME280;27734;47.028;28.820;2023-04-19T11:16:56;99896.44;;;15.99;87.57
42067;BME280;27734;47.028;28.820;2023-04-19T11:19:28;99890.33;;;16.14;86.92
42067;BME280;27734;47.028;28.820;2023-04-19T11:22:04;99905.35;;;16.28;87.10
42067;BME280;27734;47.028;28.820;2023-04-19T11:24:38;99899.19;;;16.29;83.39
42067;BME280;27734;47.028;28.820;2023-04-19T11:27:16;99898.31;;;16.27;84.25
42067;BME280;27734;47.028;28.820;2023-04-19T11:29:53;99895.66;;;16.24;83.99
42067;BME280;27734;47.028;28.820;2023-04-19T11:32:33;99885.05;;;16.21;84.54
42067;BME280;27734;47.028;28.820;2023-04-19T11:35:10;99888.59;;;16.27;84.57
42067;BME280;27734;47.028;28.820;2023-04-19T11:37:49;99894.80;;;16.42;81.90
42067;BME280;27734;47.028;28.820;2023-04-19T11:40:22;99876.28;;;16.54;81.23
42067;BME280;27734;47.028;28.820;2023-04-19T11:42:59;99880.73;;;16.66;82.48
42067;BME280;27734;47.028;28.820;2023-04-19T11:45:34;99873.66;;;16.71;82.46
42067;BME280;27734;47.028;28.820;2023-04-19T11:48:19;99873.66;;;16.66;80.73
42067;BME280;27734;47.028;28.820;2023-04-19T11:51:06;99870.12;;;16.53;78.89
42067;BME280;27734;47.028;28.820;2023-04-19T11:53:41;99868.34;;;16.51;80.48
42067;BME280;27734;47.028;28.820;2023-04-19T11:56:17;99860.39;;;16.51;80.54
42067;BME280;27734;47.028;28.820;2023-04-19T11:58:50;99857.75;;;16.52;80.80
42067;BME280;27734;47.028;28.820;2023-04-19T12:01:24;99857.76;;;16.62;79.84
42067;BME280;27734;47.028;28.820;2023-04-19T12:03:59;99854.24;;;16.70;79.06
42067;BME280;27734;47.028;28.820;2023-04-19T12:06:31;99858.64;;;16.78;80.56
42067;BME280;27734;47.028;28.820;2023-04-19T12:09:09;99857.77;;;16.77;79.41
42067;BME280;27734;47.028;28.820;2023-04-19T12:11:45;99855.98;;;16.65;78.87
42067;BME280;27734;47.028;28.820;2023-04-19T12:14:24;99847.16;;;16.57;79.41
42067;BME280;27734;47.028;28.820;2023-04-19T12:17:19;99855.95;;;16.41;76.61
42067;BME280;27734;47.028;28.820;2023-04-19T12:19:49;99840.95;;;16.32;76.57
42067;BME280;27734;47.028;28.820;2023-04-19T12:22:24;99844.46;;;16.26;78.57
42067;BME280;27734;47.028;28.820;2023-04-19T12:24:59;99846.21;;;16.16;76.77
42067;BME280;27734;47.028;28.820;2023-04-19T12:27:30;99844.42;;;16.09;76.52
42067;BME280;27734;47.028;28.820;2023-04-19T12:30:02;99847.05;;;16.02;75.74
42067;BME280;27734;47.028;28.820;2023-04-19T12:32:38;99844.37;;;15.94;76.62
42067;BME280;27734;47.028;28.820;2023-04-19T12:35:10;99842.61;;;15.88;76.74
42067;BME280;27734;47.028;28.820;2023-04-19T12:37:44;99832.00;;;15.82;77.35
42067;BME280;27734;47.028;28.820;2023-04-19T12:40:19;99835.50;;;15.78;77.22
42067;BME280;27734;47.028;28.820;2023-04-19T12:42:52;99834.58;;;15.73;77.35
42067;BME280;27734;47.028;28.820;2023-04-19T12:45:27;99831.03;;;15.66;76.56
42067;BME280;27734;47.028;28.820;2023-04-19T12:48:01;99837.16;;;15.59;74.87
42067;BME280;27734;47.028;28.820;2023-04-19T12:50:32;99837.14;;;15.56;77.68
42067;BME280;27734;47.028;28.820;2023-04-19T12:53:12;99854.75;;;15.51;78.12
42067;BME280;27734;47.028;28.820;2023-04-19T12:55:47;99870.58;;;15.43;78.92
42067;BME280;27734;47.028;28.820;2023-04-19T12:58:19;99881.94;;;15.30;79.29
42067;BME280;27734;47.028;28.820;2023-04-19T13:00:53;99878.28;;;15.10;80.30
42067;BME280;27734;47.028;28.820;2023-04-19T13:03:30;99876.28;;;14.82;81.04
42067;BME280;27734;47.028;28.820;2023-04-19T13:06:07;99869.00;;;14.56;80.77
42067;BME280;27734;47.028;28.820;2023-04-19T13:08:38;99861.70;;;14.32;81.57
42067;BME280;27734;47.028;28.820;2023-04-19T13:11:12;99873.81;;;14.11;81.96
42067;BME280;27734;47.028;28.820;2023-04-19T13:13:50;99884.13;;;13.91;81.37
42067;BME280;27734;47.028;28.820;2023-04-19T13:16:23;99890.05;;;13.72;81.69
42067;BME280;27734;47.028;28.820;2023-04-19T13:18:54;99886.30;;;13.54;81.99
42067;BME280;27734;47.028;28.820;2023-04-19T13:21:32;99890.58;;;13.47;81.79
42067;BME280;27734;47.028;28.820;2023-04-19T13:24:07;99900.14;;;13.39;83.63
42067;BME280;27734;47.028;28.820;2023-04-19T13:26:39;99892.80;;;13.21;83.89
42067;BME280;27734;47.028;28.820;2023-04-19T13:29:10;99884.73;;;13.09;83.16
42067;BME280;27734;47.028;28.820;2023-04-19T13:31:43;99883.73;;;13.02;83.95
42067;BME280;27734;47.028;28.820;2023-04-19T13:34:16;99881.95;;;13.00;84.19
42067;BME280;27734;47.028;28.820;2023-04-19T13:36:50;99877.54;;;12.99;83.83
42067;BME280;27734;47.028;28.820;2023-04-19T13:39:25;99877.52;;;12.97;84.25
42067;BME280;27734;47.028;28.820;2023-04-19T13:41:59;99871.34;;;12.95;85.36
42067;BME280;27734;47.028;28.820;2023-04-19T13:44:34;99878.31;;;12.93;85.05
42067;BME280;27734;47.028;28.820;2023-04-19T13:47:05;99875.69;;;12.93;85.04
42067;BME280;27734;47.028;28.820;2023-04-19T13:49:48;99870.39;;;12.91;85.14
42067;BME280;27734;47.028;28.820;2023-04-19T13:52:21;99878.31;;;12.93;85.63
42067;BME280;27734;47.028;28.820;2023-04-19T13:54:54;99880.08;;;12.92;85.93
42067;BME280;27734;47.028;28.820;2023-04-19T13:57:25;99869.54;;;12.92;86.18
42067;BME280;27734;47.028;28.820;2023-04-19T14:00:04;99876.54;;;12.90;86.51
42067;BME280;27734;47.028;28.820;2023-04-19T14:02:36;99869.48;;;12.89;86.56
42067;BME280;27734;47.028;28.820;2023-04-19T14:05:10;99871.22;;;12.87;86.78
42067;BME280;27734;47.028;28.820;2023-04-19T14:07:46;99874.68;;;12.85;87.43
42067;BME280;27734;47.028;28.820;2023-04-19T14:10:22;99873.78;;;12.83;88.11
42067;BME280;27734;47.028;28.820;2023-04-19T14:13:12;99874.62;;;12.82;88.17
42067;BME280;27734;47.028;28.820;2023-04-19T14:15:48;99882.45;;;12.77;88.18
42067;BME280;27734;47.028;28.820;2023-04-19T14:18:19;99878.89;;;12.73;88.34
42067;BME280;27734;47.028;28.820;2023-04-19T14:20:51;99869.23;;;12.74;88.24
42067;BME280;27734;47.028;28.820;2023-04-19T14:23:23;99877.11;;;12.72;88.62
42067;BME280;27734;47.028;28.820;2023-04-19T14:25:55;99875.30;;;12.70;89.00
42067;BME280;27734;47.028;28.820;2023-04-19T14:28:26;99884.92;;;12.68;88.70
42067;BME280;27734;47.028;28.820;2023-04-19T14:31:02;99875.24;;;12.67;88.84
42067;BME280;27734;47.028;28.820;2023-04-19T14:33:40;99877.00;;;12.66;88.82
42067;BME280;27734;47.028;28.820;2023-04-19T14:36:13;99878.78;;;12.67;89.07
42067;BME280;27734;47.028;28.820;2023-04-19T14:38:47;99874.45;;;12.71;89.07
42067;BME280;27734;47.028;28.820;2023-04-19T14:41:17;99875.27;;;12.68;90.91
42067;BME280;27734;47.028;28.820;2023-04-19T14:43:48;99878.76;;;12.66;90.05
42067;BME280;27734;47.028;28.820;2023-04-19T14:46:19;99883.11;;;12.65;90.51
42067;BME280;27734;47.028;28.820;2023-04-19T14:48:51;99883.09;;;12.62;90.43
42067;BME280;27734;47.028;28.820;2023-04-19T14:51:22;99876.02;;;12.59;90.60
42067;BME280;27734;47.028;28.820;2023-04-19T14:53:53;99879.55;;;12.62;90.79
42067;BME280;27734;47.028;28.820;2023-04-19T14:56:28;99876.09;;;12.64;90.27
42067;BME280;27734;47.028;28.820;2023-04-19T14:58:59;99877.00;;;12.66;90.14
42067;BME280;27734;47.028;28.820;2023-04-19T15:01:31;99875.24;;;12.67;90.52
42067;BME280;27734;47.028;28.820;2023-04-19T15:04:03;99876.15;;;12.67;90.86
42067;BME280;27734;47.028;28.820;2023-04-19T15:06:34;99877.92;;;12.70;90.93
42067;BME280;27734;47.028;28.820;2023-04-19T15:09:06;99885.83;;;12.70;91.59
42067;BME280;27734;47.028;28.820;2023-04-19T15:11:40;99888.41;;;12.67;92.31
42067;BME280;27734;47.028;28.820;2023-04-19T15:14:15;99883.97;;;12.63;92.63
42067;BME280;27734;47.028;28.820;2023-04-19T15:16:48;99893.59;;;12.61;92.27
42067;BME280;27734;47.028;28.820;2023-04-19T15:19:19;99897.89;;;12.57;92.66
42067;BME280;27734;47.028;28.820;2023-04-19T15:21:51;99888.19;;;12.53;92.44
42067;BME280;27734;47.028;28.820;2023-04-19T15:24:22;99885.56;;;12.53;92.80
42067;BME280;27734;47.028;28.820;2023-04-19T15:26:53;99886.44;;;12.53;92.59
42067;BME280;27734;47.028;28.820;2023-04-19T15:29:25;99881.12;;;12.50;92.68
42067;BME280;27734;47.028;28.820;2023-04-19T15:31:56;99889.02;;;12.50;93.12
42067;BME280;27734;47.028;28.820;2023-04-19T15:34:27;99890.73;;;12.48;93.41
42067;BME280;27734;47.028;28.820;2023-04-19T15:36:59;99895.03;;;12.45;93.38
42067;BME280;27734;47.028;28.820;2023-04-19T15:39:31;99886.23;;;12.43;93.44
42067;BME280;27734;47.028;28.820;2023-04-19T15:42:02;99887.05;;;12.40;93.57
42067;BME280;27734;47.028;28.820;2023-04-19T15:44:34;99894.89;;;12.37;93.23
42067;BME280;27734;47.028;28.820;2023-04-19T15:47:05;99887.82;;;12.33;93.45
42067;BME280;27734;47.028;28.820;2023-04-19T15:49:37;99885.08;;;12.27;93.53
42067;BME280;27734;47.028;28.820;2023-04-19T15:52:09;99881.41;;;12.20;93.53
42067;BME280;27734;47.028;28.820;2023-04-19T15:54:40;99884.92;;;12.19;93.45
42067;BME280;27734;47.028;28.820;2023-04-19T15:57:12;99889.22;;;12.15;93.80
42067;BME280;27734;47.028;28.820;2023-04-19T15:59:43;99896.14;;;12.10;94.11
42067;BME280;27734;47.028;28.820;2023-04-19T16:02:14;99888.09;;;12.02;94.09
42067;BME280;27734;47.028;28.820;2023-04-19T16:04:48;99892.48;;;12.02;93.95
42067;BME280;27734;47.028;28.820;2023-04-19T16:07:20;99882.81;;;12.01;94.14
42067;BME280;27734;47.028;28.820;2023-04-19T16:09:51;99881.09;;;12.01;94.43
42067;BME280;27734;47.028;28.820;2023-04-19T16:12:22;99870.57;;;12.01;94.46
42067;BME280;27734;47.028;28.820;2023-04-19T16:14:57;99874.08;;;12.02;94.53
42067;BME280;27734;47.028;28.820;2023-04-19T16:17:28;99872.26;;;11.99;94.71
42067;BME280;27734;47.028;28.820;2023-04-19T16:19:59;99872.26;;;11.99;94.86
42067;BME280;27734;47.028;28.820;2023-04-19T16:22:30;99874.86;;;11.98;94.77
42067;BME280;27734;47.028;28.820;2023-04-19T16:25:02;99863.47;;;11.97;95.15
42067;BME280;27734;47.028;28.820;2023-04-19T16:27:35;99867.84;;;11.97;95.14
42067;BME280;27734;47.028;28.820;2023-04-19T16:30:11;99859.02;;;11.95;95.32